Grindrod, Canada
Current Conditions -  °F | °C
As of 5:13 AM on Thursday 23 Oct 2014 (Local Time) from CYRV Reporting Station
Light Rain Light Rain  
Wind Chill: 45°   Ceiling: 1300
Heat Index: 48°   Visibility: 9mi
Dew Point: 46°   Wind: 8mph
Humidity: 93%   Direction: 160°SSE
Pressure: 29.63"   Gusts: 22mph
Location:  50.63°N, 119.12°W
Report Text: CYRV 231213Z AUTO 16007G19KT 9SM -RA SCT008 BKN013 OVC060 09/08 A2963 RMK SLP041
Loading
Personal Weather Stations






























Interactive Weather Map
Tropical Storm Tracking
New forecast layout! Learn more

10-Day Weather Forecast

Advertisements
Track Severe Weather on mobile